sensor_id;sensor_type;location;lat;lon;timestamp;P1;durP1;ratioP1;P2;durP2;ratioP2
2452;SDS011;63678;47.994;7.854;2023-03-24T00:00:42;6.18;;;2.20;;
2452;SDS011;63678;47.994;7.854;2023-03-24T00:03:14;3.83;;;2.17;;
2452;SDS011;63678;47.994;7.854;2023-03-24T00:05:53;4.47;;;2.15;;
2452;SDS011;63678;47.994;7.854;2023-03-24T00:08:34;3.72;;;2.15;;
2452;SDS011;63678;47.994;7.854;2023-03-24T00:11:08;4.88;;;2.20;;
2452;SDS011;63678;47.994;7.854;2023-03-24T00:13:42;4.07;;;2.30;;
2452;SDS011;63678;47.994;7.854;2023-03-24T00:16:14;4.20;;;2.40;;
2452;SDS011;63678;47.994;7.854;2023-03-24T00:18:50;7.18;;;2.58;;
2452;SDS011;63678;47.994;7.854;2023-03-24T00:21:26;5.07;;;2.15;;
2452;SDS011;63678;47.994;7.854;2023-03-24T00:23:58;4.55;;;2.30;;
2452;SDS011;63678;47.994;7.854;2023-03-24T00:26:32;3.90;;;2.10;;
2452;SDS011;63678;47.994;7.854;2023-03-24T00:29:09;4.70;;;2.40;;
2452;SDS011;63678;47.994;7.854;2023-03-24T00:31:42;5.03;;;2.30;;
2452;SDS011;63678;47.994;7.854;2023-03-24T00:34:15;4.60;;;2.40;;
2452;SDS011;63678;47.994;7.854;2023-03-24T00:36:49;5.15;;;2.40;;
2452;SDS011;63678;47.994;7.854;2023-03-24T00:39:22;4.30;;;2.45;;
2452;SDS011;63678;47.994;7.854;2023-03-24T00:41:54;3.93;;;2.33;;
2452;SDS011;63678;47.994;7.854;2023-03-24T00:44:29;3.72;;;2.17;;
2452;SDS011;63678;47.994;7.854;2023-03-24T00:47:01;5.03;;;2.20;;
2452;SDS011;63678;47.994;7.854;2023-03-24T00:49:34;4.95;;;2.92;;
2452;SDS011;63678;47.994;7.854;2023-03-24T00:52:15;5.18;;;2.60;;
2452;SDS011;63678;47.994;7.854;2023-03-24T00:54:52;5.27;;;2.43;;
2452;SDS011;63678;47.994;7.854;2023-03-24T00:57:30;5.78;;;2.30;;
2452;SDS011;63678;47.994;7.854;2023-03-24T01:00:07;6.03;;;2.78;;
2452;SDS011;63678;47.994;7.854;2023-03-24T01:02:47;9.07;;;3.38;;
2452;SDS011;63678;47.994;7.854;2023-03-24T01:05:25;6.88;;;3.00;;
2452;SDS011;63678;47.994;7.854;2023-03-24T01:08:00;5.17;;;3.17;;
2452;SDS011;63678;47.994;7.854;2023-03-24T01:10:35;5.75;;;2.80;;
2452;SDS011;63678;47.994;7.854;2023-03-24T01:13:22;4.60;;;2.70;;
2452;SDS011;63678;47.994;7.854;2023-03-24T01:15:59;6.55;;;2.80;;
2452;SDS011;63678;47.994;7.854;2023-03-24T01:18:31;7.57;;;3.38;;
2452;SDS011;63678;47.994;7.854;2023-03-24T01:21:07;6.23;;;3.40;;
2452;SDS011;63678;47.994;7.854;2023-03-24T01:23:41;5.22;;;2.75;;
2452;SDS011;63678;47.994;7.854;2023-03-24T01:26:14;7.07;;;2.63;;
2452;SDS011;63678;47.994;7.854;2023-03-24T01:28:46;5.00;;;2.72;;
2452;SDS011;63678;47.994;7.854;2023-03-24T01:31:19;4.85;;;2.58;;
2452;SDS011;63678;47.994;7.854;2023-03-24T01:33:52;4.67;;;2.57;;
2452;SDS011;63678;47.994;7.854;2023-03-24T01:36:24;6.05;;;2.90;;
2452;SDS011;63678;47.994;7.854;2023-03-24T01:38:57;4.97;;;3.20;;
2452;SDS011;63678;47.994;7.854;2023-03-24T01:41:33;4.85;;;2.80;;
2452;SDS011;63678;47.994;7.854;2023-03-24T01:44:35;4.70;;;2.85;;
2452;SDS011;63678;47.994;7.854;2023-03-24T01:47:09;5.80;;;3.10;;
2452;SDS011;63678;47.994;7.854;2023-03-24T01:49:43;6.65;;;3.22;;
2452;SDS011;63678;47.994;7.854;2023-03-24T01:52:30;7.10;;;3.50;;
2452;SDS011;63678;47.994;7.854;2023-03-24T01:55:14;5.85;;;3.03;;
2452;SDS011;63678;47.994;7.854;2023-03-24T01:57:54;5.57;;;3.40;;
2452;SDS011;63678;47.994;7.854;2023-03-24T02:00:35;8.33;;;3.40;;
2452;SDS011;63678;47.994;7.854;2023-03-24T02:03:28;7.65;;;2.60;;
2452;SDS011;63678;47.994;7.854;2023-03-24T02:06:05;4.55;;;2.70;;
2452;SDS011;63678;47.994;7.854;2023-03-24T02:08:53;4.60;;;2.63;;
2452;SDS011;63678;47.994;7.854;2023-03-24T02:11:30;4.85;;;2.72;;
2452;SDS011;63678;47.994;7.854;2023-03-24T02:14:08;7.03;;;2.80;;
2452;SDS011;63678;47.994;7.854;2023-03-24T02:16:57;5.28;;;2.40;;
2452;SDS011;63678;47.994;7.854;2023-03-24T02:37:17;5.30;;;2.30;;
2452;SDS011;63678;47.994;7.854;2023-03-24T02:40:23;3.70;;;1.95;;
2452;SDS011;63678;47.994;7.854;2023-03-24T02:46:32;3.90;;;2.33;;
2452;SDS011;63678;47.994;7.854;2023-03-24T02:51:59;3.67;;;1.83;;
2452;SDS011;63678;47.994;7.854;2023-03-24T02:54:56;4.50;;;2.05;;
2452;SDS011;63678;47.994;7.854;2023-03-24T03:01:12;4.20;;;2.30;;
2452;SDS011;63678;47.994;7.854;2023-03-24T03:04:28;3.95;;;2.05;;
2452;SDS011;63678;47.994;7.854;2023-03-24T03:07:05;4.55;;;2.13;;
2452;SDS011;63678;47.994;7.854;2023-03-24T03:09:46;4.57;;;2.50;;
2452;SDS011;63678;47.994;7.854;2023-03-24T03:12:36;4.18;;;2.10;;
2452;SDS011;63678;47.994;7.854;2023-03-24T03:15:15;3.70;;;2.30;;
2452;SDS011;63678;47.994;7.854;2023-03-24T03:18:17;4.75;;;2.20;;
2452;SDS011;63678;47.994;7.854;2023-03-24T03:21:03;3.85;;;2.28;;
2452;SDS011;63678;47.994;7.854;2023-03-24T03:23:45;4.70;;;2.10;;
2452;SDS011;63678;47.994;7.854;2023-03-24T03:26:23;3.60;;;2.20;;
2452;SDS011;63678;47.994;7.854;2023-03-24T03:29:04;4.13;;;2.43;;
2452;SDS011;63678;47.994;7.854;2023-03-24T03:31:48;3.85;;;2.20;;
2452;SDS011;63678;47.994;7.854;2023-03-24T03:34:41;4.35;;;2.63;;
2452;SDS011;63678;47.994;7.854;2023-03-24T03:37:33;3.65;;;2.10;;
2452;SDS011;63678;47.994;7.854;2023-03-24T03:40:19;4.10;;;2.47;;
2452;SDS011;63678;47.994;7.854;2023-03-24T03:43:01;5.20;;;2.47;;
2452;SDS011;63678;47.994;7.854;2023-03-24T03:45:35;4.85;;;1.95;;
2452;SDS011;63678;47.994;7.854;2023-03-24T03:48:07;4.20;;;2.50;;
2452;SDS011;63678;47.994;7.854;2023-03-24T03:50:39;3.90;;;2.50;;
2452;SDS011;63678;47.994;7.854;2023-03-24T03:53:12;4.97;;;2.13;;
2452;SDS011;63678;47.994;7.854;2023-03-24T03:55:48;4.03;;;2.20;;
2452;SDS011;63678;47.994;7.854;2023-03-24T03:58:20;4.00;;;2.08;;
2452;SDS011;63678;47.994;7.854;2023-03-24T04:00:57;4.75;;;2.70;;
2452;SDS011;63678;47.994;7.854;2023-03-24T04:07:38;4.85;;;2.85;;
2452;SDS011;63678;47.994;7.854;2023-03-24T04:11:11;6.57;;;3.00;;
2452;SDS011;63678;47.994;7.854;2023-03-24T04:18:09;5.50;;;3.47;;
2452;SDS011;63678;47.994;7.854;2023-03-24T04:21:19;5.38;;;3.42;;
2452;SDS011;63678;47.994;7.854;2023-03-24T04:27:37;7.70;;;3.97;;
2452;SDS011;63678;47.994;7.854;2023-03-24T04:30:39;6.15;;;4.13;;
2452;SDS011;63678;47.994;7.854;2023-03-24T04:33:24;8.77;;;4.40;;
2452;SDS011;63678;47.994;7.854;2023-03-24T04:36:27;9.13;;;4.60;;
2452;SDS011;63678;47.994;7.854;2023-03-24T04:39:32;8.30;;;4.45;;
2452;SDS011;63678;47.994;7.854;2023-03-24T04:42:14;9.00;;;4.70;;
2452;SDS011;63678;47.994;7.854;2023-03-24T04:44:51;9.63;;;4.88;;
2452;SDS011;63678;47.994;7.854;2023-03-24T04:47:44;7.38;;;4.60;;
2452;SDS011;63678;47.994;7.854;2023-03-24T04:50:48;8.73;;;5.03;;
2452;SDS011;63678;47.994;7.854;2023-03-24T04:53:49;7.93;;;5.00;;
2452;SDS011;63678;47.994;7.854;2023-03-24T04:56:26;9.60;;;5.27;;
2452;SDS011;63678;47.994;7.854;2023-03-24T04:59:09;10.00;;;5.07;;
2452;SDS011;63678;47.994;7.854;2023-03-24T05:01:43;7.60;;;4.90;;
2452;SDS011;63678;47.994;7.854;2023-03-24T05:04:36;12.80;;;5.47;;
2452;SDS011;63678;47.994;7.854;2023-03-24T05:07:21;9.10;;;5.15;;
2452;SDS011;63678;47.994;7.854;2023-03-24T05:09:58;7.78;;;5.25;;
2452;SDS011;63678;47.994;7.854;2023-03-24T05:12:31;8.35;;;4.90;;
2452;SDS011;63678;47.994;7.854;2023-03-24T05:15:19;8.52;;;5.30;;
2452;SDS011;63678;47.994;7.854;2023-03-24T05:17:57;7.65;;;4.80;;
2452;SDS011;63678;47.994;7.854;2023-03-24T05:20:30;8.65;;;5.55;;
2452;SDS011;63678;47.994;7.854;2023-03-24T05:23:12;11.17;;;6.03;;
2452;SDS011;63678;47.994;7.854;2023-03-24T05:25:47;10.38;;;5.57;;
2452;SDS011;63678;47.994;7.854;2023-03-24T05:28:21;10.55;;;5.72;;
2452;SDS011;63678;47.994;7.854;2023-03-24T05:30:54;9.07;;;5.78;;
2452;SDS011;63678;47.994;7.854;2023-03-24T05:33:42;8.75;;;5.30;;
2452;SDS011;63678;47.994;7.854;2023-03-24T05:36:18;11.63;;;5.55;;
2452;SDS011;63678;47.994;7.854;2023-03-24T05:38:57;9.40;;;5.53;;
2452;SDS011;63678;47.994;7.854;2023-03-24T05:41:40;9.25;;;5.55;;
2452;SDS011;63678;47.994;7.854;2023-03-24T05:44:13;8.05;;;4.97;;
2452;SDS011;63678;47.994;7.854;2023-03-24T05:46:53;10.48;;;6.15;;
2452;SDS011;63678;47.994;7.854;2023-03-24T05:49:25;13.07;;;5.83;;
2452;SDS011;63678;47.994;7.854;2023-03-24T05:51:58;9.32;;;5.90;;
2452;SDS011;63678;47.994;7.854;2023-03-24T05:54:31;10.88;;;5.50;;
2452;SDS011;63678;47.994;7.854;2023-03-24T05:57:18;9.48;;;5.93;;
2452;SDS011;63678;47.994;7.854;2023-03-24T06:00:12;9.77;;;5.60;;
2452;SDS011;63678;47.994;7.854;2023-03-24T06:02:56;11.57;;;6.03;;
2452;SDS011;63678;47.994;7.854;2023-03-24T06:05:43;10.65;;;5.75;;
2452;SDS011;63678;47.994;7.854;2023-03-24T06:08:16;10.95;;;6.43;;
2452;SDS011;63678;47.994;7.854;2023-03-24T06:10:49;10.55;;;6.45;;
2452;SDS011;63678;47.994;7.854;2023-03-24T06:13:24;10.82;;;6.78;;
2452;SDS011;63678;47.994;7.854;2023-03-24T06:15:57;11.43;;;6.28;;
2452;SDS011;63678;47.994;7.854;2023-03-24T06:18:41;12.85;;;7.10;;
2452;SDS011;63678;47.994;7.854;2023-03-24T06:21:36;11.93;;;7.03;;
2452;SDS011;63678;47.994;7.854;2023-03-24T06:24:08;13.30;;;7.05;;
2452;SDS011;63678;47.994;7.854;2023-03-24T06:26:46;11.38;;;6.25;;
2452;SDS011;63678;47.994;7.854;2023-03-24T06:29:21;11.97;;;7.03;;
2452;SDS011;63678;47.994;7.854;2023-03-24T06:31:54;9.98;;;6.65;;
2452;SDS011;63678;47.994;7.854;2023-03-24T06:34:26;12.45;;;6.40;;
2452;SDS011;63678;47.994;7.854;2023-03-24T06:37:16;14.23;;;7.20;;
2452;SDS011;63678;47.994;7.854;2023-03-24T06:39:48;11.10;;;7.35;;
2452;SDS011;63678;47.994;7.854;2023-03-24T06:42:25;14.07;;;7.38;;
2452;SDS011;63678;47.994;7.854;2023-03-24T06:44:57;10.30;;;7.30;;
2452;SDS011;63678;47.994;7.854;2023-03-24T06:47:30;10.20;;;6.65;;
2452;SDS011;63678;47.994;7.854;2023-03-24T06:50:02;14.00;;;8.00;;
2452;SDS011;63678;47.994;7.854;2023-03-24T06:52:36;11.48;;;6.95;;
2452;SDS011;63678;47.994;7.854;2023-03-24T06:55:08;15.87;;;7.87;;
2452;SDS011;63678;47.994;7.854;2023-03-24T06:57:41;13.40;;;7.30;;
2452;SDS011;63678;47.994;7.854;2023-03-24T07:00:32;10.23;;;7.25;;
2452;SDS011;63678;47.994;7.854;2023-03-24T07:03:27;11.18;;;6.57;;
2452;SDS011;63678;47.994;7.854;2023-03-24T07:06:22;11.70;;;7.60;;
2452;SDS011;63678;47.994;7.854;2023-03-24T07:08:59;13.27;;;7.80;;
2452;SDS011;63678;47.994;7.854;2023-03-24T07:11:33;12.38;;;7.53;;
2452;SDS011;63678;47.994;7.854;2023-03-24T07:14:06;12.43;;;7.68;;
2452;SDS011;63678;47.994;7.854;2023-03-24T07:16:39;14.10;;;7.65;;
2452;SDS011;63678;47.994;7.854;2023-03-24T07:19:41;11.82;;;7.43;;
2452;SDS011;63678;47.994;7.854;2023-03-24T07:22:35;11.57;;;6.72;;
2452;SDS011;63678;47.994;7.854;2023-03-24T07:25:26;12.57;;;6.68;;
2452;SDS011;63678;47.994;7.854;2023-03-24T07:28:09;11.00;;;5.65;;
2452;SDS011;63678;47.994;7.854;2023-03-24T07:30:42;8.93;;;5.00;;
2452;SDS011;63678;47.994;7.854;2023-03-24T07:33:15;10.23;;;4.90;;
2452;SDS011;63678;47.994;7.854;2023-03-24T07:35:48;7.50;;;5.00;;
2452;SDS011;63678;47.994;7.854;2023-03-24T07:38:26;9.57;;;5.03;;
2452;SDS011;63678;47.994;7.854;2023-03-24T07:41:04;7.75;;;4.95;;
2452;SDS011;63678;47.994;7.854;2023-03-24T07:43:40;8.82;;;4.97;;
2452;SDS011;63678;47.994;7.854;2023-03-24T07:46:39;8.13;;;4.60;;
2452;SDS011;63678;47.994;7.854;2023-03-24T07:49:12;8.75;;;4.82;;
2452;SDS011;63678;47.994;7.854;2023-03-24T07:52:09;7.75;;;4.75;;
2452;SDS011;63678;47.994;7.854;2023-03-24T07:54:45;7.55;;;4.70;;
2452;SDS011;63678;47.994;7.854;2023-03-24T07:57:39;7.65;;;4.22;;
2452;SDS011;63678;47.994;7.854;2023-03-24T08:00:16;8.70;;;4.35;;
2452;SDS011;63678;47.994;7.854;2023-03-24T08:03:10;7.57;;;4.55;;
2452;SDS011;63678;47.994;7.854;2023-03-24T08:06:08;11.70;;;4.53;;
2452;SDS011;63678;47.994;7.854;2023-03-24T08:08:48;7.70;;;4.13;;
2452;SDS011;63678;47.994;7.854;2023-03-24T08:11:20;6.75;;;4.28;;
2452;SDS011;63678;47.994;7.854;2023-03-24T08:13:52;8.65;;;4.47;;
2452;SDS011;63678;47.994;7.854;2023-03-24T08:16:24;6.82;;;4.50;;
2452;SDS011;63678;47.994;7.854;2023-03-24T08:18:57;6.30;;;4.20;;
2452;SDS011;63678;47.994;7.854;2023-03-24T08:21:29;6.93;;;4.22;;
2452;SDS011;63678;47.994;7.854;2023-03-24T08:24:02;12.40;;;3.90;;
2452;SDS011;63678;47.994;7.854;2023-03-24T08:26:35;6.13;;;4.00;;
2452;SDS011;63678;47.994;7.854;2023-03-24T08:29:07;7.07;;;3.88;;
2452;SDS011;63678;47.994;7.854;2023-03-24T08:31:39;6.45;;;3.60;;
2452;SDS011;63678;47.994;7.854;2023-03-24T08:34:12;6.03;;;3.60;;
2452;SDS011;63678;47.994;7.854;2023-03-24T08:36:44;7.18;;;4.20;;
2452;SDS011;63678;47.994;7.854;2023-03-24T08:39:17;5.10;;;3.28;;
2452;SDS011;63678;47.994;7.854;2023-03-24T08:41:50;6.22;;;3.22;;
2452;SDS011;63678;47.994;7.854;2023-03-24T08:44:25;5.15;;;2.83;;
2452;SDS011;63678;47.994;7.854;2023-03-24T08:46:59;5.25;;;2.75;;
2452;SDS011;63678;47.994;7.854;2023-03-24T08:49:32;7.53;;;2.67;;
2452;SDS011;63678;47.994;7.854;2023-03-24T08:52:04;5.10;;;2.65;;
2452;SDS011;63678;47.994;7.854;2023-03-24T08:54:37;6.70;;;3.40;;
2452;SDS011;63678;47.994;7.854;2023-03-24T08:57:09;5.68;;;3.00;;
2452;SDS011;63678;47.994;7.854;2023-03-24T08:59:41;5.15;;;2.83;;
2452;SDS011;63678;47.994;7.854;2023-03-24T09:02:14;5.55;;;3.20;;
2452;SDS011;63678;47.994;7.854;2023-03-24T09:04:46;5.13;;;2.78;;
2452;SDS011;63678;47.994;7.854;2023-03-24T09:07:22;5.47;;;2.80;;
2452;SDS011;63678;47.994;7.854;2023-03-24T09:09:55;5.40;;;3.03;;
2452;SDS011;63678;47.994;7.854;2023-03-24T09:12:26;4.70;;;3.10;;
2452;SDS011;63678;47.994;7.854;2023-03-24T09:14:59;6.18;;;3.13;;
2452;SDS011;63678;47.994;7.854;2023-03-24T09:17:31;4.75;;;2.70;;
2452;SDS011;63678;47.994;7.854;2023-03-24T09:20:05;5.00;;;2.90;;
2452;SDS011;63678;47.994;7.854;2023-03-24T09:22:43;5.38;;;3.05;;
2452;SDS011;63678;47.994;7.854;2023-03-24T09:25:18;4.60;;;2.50;;
2452;SDS011;63678;47.994;7.854;2023-03-24T09:27:51;5.82;;;2.40;;
2452;SDS011;63678;47.994;7.854;2023-03-24T09:30:23;6.70;;;3.03;;
2452;SDS011;63678;47.994;7.854;2023-03-24T09:32:56;5.57;;;3.00;;
2452;SDS011;63678;47.994;7.854;2023-03-24T09:35:29;4.80;;;3.17;;
2452;SDS011;63678;47.994;7.854;2023-03-24T09:38:02;5.93;;;2.90;;
2452;SDS011;63678;47.994;7.854;2023-03-24T09:40:35;4.60;;;2.45;;
2452;SDS011;63678;47.994;7.854;2023-03-24T09:43:17;4.00;;;2.42;;
2452;SDS011;63678;47.994;7.854;2023-03-24T09:45:57;4.03;;;2.50;;
2452;SDS011;63678;47.994;7.854;2023-03-24T09:51:08;4.45;;;2.97;;
2452;SDS011;63678;47.994;7.854;2023-03-24T09:53:58;5.10;;;2.70;;
2452;SDS011;63678;47.994;7.854;2023-03-24T09:56:53;4.60;;;2.53;;
2452;SDS011;63678;47.994;7.854;2023-03-24T10:02:09;5.38;;;2.83;;
2452;SDS011;63678;47.994;7.854;2023-03-24T10:04:44;3.92;;;2.33;;
2452;SDS011;63678;47.994;7.854;2023-03-24T10:10:17;5.32;;;2.67;;
2452;SDS011;63678;47.994;7.854;2023-03-24T10:13:08;5.00;;;2.50;;
2452;SDS011;63678;47.994;7.854;2023-03-24T10:16:03;5.07;;;2.63;;
2452;SDS011;63678;47.994;7.854;2023-03-24T10:18:57;4.63;;;2.60;;
2452;SDS011;63678;47.994;7.854;2023-03-24T10:24:58;8.18;;;2.40;;
2452;SDS011;63678;47.994;7.854;2023-03-24T10:27:59;5.95;;;2.78;;
2452;SDS011;63678;47.994;7.854;2023-03-24T10:30:48;4.88;;;2.35;;
2452;SDS011;63678;47.994;7.854;2023-03-24T10:33:23;3.83;;;2.38;;
2452;SDS011;63678;47.994;7.854;2023-03-24T10:36:02;3.72;;;2.08;;
2452;SDS011;63678;47.994;7.854;2023-03-24T10:38:48;5.32;;;2.45;;
2452;SDS011;63678;47.994;7.854;2023-03-24T10:41:23;4.13;;;2.42;;
2452;SDS011;63678;47.994;7.854;2023-03-24T10:43:58;4.85;;;2.30;;
2452;SDS011;63678;47.994;7.854;2023-03-24T10:46:32;5.30;;;2.60;;
2452;SDS011;63678;47.994;7.854;2023-03-24T10:51:45;5.03;;;2.28;;
2452;SDS011;63678;47.994;7.854;2023-03-24T10:54:40;3.67;;;1.90;;
2452;SDS011;63678;47.994;7.854;2023-03-24T10:57:27;4.07;;;2.13;;
2452;SDS011;63678;47.994;7.854;2023-03-24T11:00:08;3.42;;;1.92;;
2452;SDS011;63678;47.994;7.854;2023-03-24T11:02:53;3.88;;;2.00;;
2452;SDS011;63678;47.994;7.854;2023-03-24T11:05:31;3.70;;;2.10;;
2452;SDS011;63678;47.994;7.854;2023-03-24T11:10:53;3.72;;;1.95;;
2452;SDS011;63678;47.994;7.854;2023-03-24T11:13:32;3.45;;;1.80;;
2452;SDS011;63678;47.994;7.854;2023-03-24T11:18:53;3.33;;;2.00;;
2452;SDS011;63678;47.994;7.854;2023-03-24T11:21:55;6.00;;;1.77;;
2452;SDS011;63678;47.994;7.854;2023-03-24T11:24:56;3.13;;;1.60;;
2452;SDS011;63678;47.994;7.854;2023-03-24T11:27:28;2.90;;;1.33;;
2452;SDS011;63678;47.994;7.854;2023-03-24T11:30:03;3.72;;;1.70;;
2452;SDS011;63678;47.994;7.854;2023-03-24T11:32:37;3.00;;;1.30;;
2452;SDS011;63678;47.994;7.854;2023-03-24T11:35:17;3.17;;;1.73;;
2452;SDS011;63678;47.994;7.854;2023-03-24T11:38:02;3.03;;;1.40;;
2452;SDS011;63678;47.994;7.854;2023-03-24T11:40:37;4.35;;;1.50;;
2452;SDS011;63678;47.994;7.854;2023-03-24T11:43:23;3.50;;;1.40;;
2452;SDS011;63678;47.994;7.854;2023-03-24T11:46:20;3.80;;;1.98;;
2452;SDS011;63678;47.994;7.854;2023-03-24T11:48:54;4.25;;;1.60;;
2452;SDS011;63678;47.994;7.854;2023-03-24T11:51:31;3.47;;;1.33;;
2452;SDS011;63678;47.994;7.854;2023-03-24T11:54:10;3.50;;;1.98;;
2452;SDS011;63678;47.994;7.854;2023-03-24T11:56:49;5.88;;;1.95;;
2452;SDS011;63678;47.994;7.854;2023-03-24T11:59:41;3.90;;;1.95;;
2452;SDS011;63678;47.994;7.854;2023-03-24T12:05:22;4.35;;;2.10;;
2452;SDS011;63678;47.994;7.854;2023-03-24T12:08:27;3.30;;;1.70;;
2452;SDS011;63678;47.994;7.854;2023-03-24T12:11:16;4.60;;;2.33;;
2452;SDS011;63678;47.994;7.854;2023-03-24T12:14:10;3.33;;;1.77;;
2452;SDS011;63678;47.994;7.854;2023-03-24T12:16:54;4.82;;;1.92;;
2452;SDS011;63678;47.994;7.854;2023-03-24T12:20:06;3.35;;;1.85;;
2452;SDS011;63678;47.994;7.854;2023-03-24T12:34:47;4.00;;;1.70;;
2452;SDS011;63678;47.994;7.854;2023-03-24T12:38:41;3.20;;;1.80;;
2452;SDS011;63678;47.994;7.854;2023-03-24T12:41:49;4.55;;;1.95;;
2452;SDS011;63678;47.994;7.854;2023-03-24T12:44:48;3.72;;;1.90;;
2452;SDS011;63678;47.994;7.854;2023-03-24T12:48:07;5.88;;;2.17;;
2452;SDS011;63678;47.994;7.854;2023-03-24T12:56:40;3.90;;;1.50;;
2452;SDS011;63678;47.994;7.854;2023-03-24T12:59:21;3.72;;;1.80;;
2452;SDS011;63678;47.994;7.854;2023-03-24T13:05:14;4.45;;;1.90;;
2452;SDS011;63678;47.994;7.854;2023-03-24T13:08:00;4.82;;;1.80;;
2452;SDS011;63678;47.994;7.854;2023-03-24T13:10:40;3.30;;;1.80;;
2452;SDS011;63678;47.994;7.854;2023-03-24T13:15:56;3.80;;;2.03;;
2452;SDS011;63678;47.994;7.854;2023-03-24T13:18:35;4.18;;;1.90;;
2452;SDS011;63678;47.994;7.854;2023-03-24T13:21:16;3.53;;;1.90;;
2452;SDS011;63678;47.994;7.854;2023-03-24T13:39:00;3.40;;;1.80;;
2452;SDS011;63678;47.994;7.854;2023-03-24T13:41:58;4.03;;;1.98;;
2452;SDS011;63678;47.994;7.854;2023-03-24T13:44:39;3.53;;;2.03;;
2452;SDS011;63678;47.994;7.854;2023-03-24T13:47:15;4.38;;;2.10;;
2452;SDS011;63678;47.994;7.854;2023-03-24T13:50:10;3.50;;;1.90;;
2452;SDS011;63678;47.994;7.854;2023-03-24T13:52:47;3.83;;;2.03;;
2452;SDS011;63678;47.994;7.854;2023-03-24T13:55:22;5.18;;;1.70;;
2452;SDS011;63678;47.994;7.854;2023-03-24T13:57:59;4.50;;;1.80;;
2452;SDS011;63678;47.994;7.854;2023-03-24T14:03:45;3.70;;;2.00;;
2452;SDS011;63678;47.994;7.854;2023-03-24T14:06:54;4.22;;;2.20;;
2452;SDS011;63678;47.994;7.854;2023-03-24T14:09:30;4.68;;;2.30;;
2452;SDS011;63678;47.994;7.854;2023-03-24T14:12:07;4.05;;;2.20;;
2452;SDS011;63678;47.994;7.854;2023-03-24T14:17:52;6.35;;;2.20;;
2452;SDS011;63678;47.994;7.854;2023-03-24T14:20:31;4.10;;;2.10;;
2452;SDS011;63678;47.994;7.854;2023-03-24T14:23:14;4.43;;;1.92;;
2452;SDS011;63678;47.994;7.854;2023-03-24T14:28:56;3.80;;;1.90;;
2452;SDS011;63678;47.994;7.854;2023-03-24T14:31:30;4.43;;;2.30;;
2452;SDS011;63678;47.994;7.854;2023-03-24T14:34:08;4.10;;;2.38;;
2452;SDS011;63678;47.994;7.854;2023-03-24T14:36:56;4.40;;;2.20;;
2452;SDS011;63678;47.994;7.854;2023-03-24T14:39:41;4.10;;;2.20;;
2452;SDS011;63678;47.994;7.854;2023-03-24T14:45:05;4.00;;;2.13;;
2452;SDS011;63678;47.994;7.854;2023-03-24T14:47:57;4.93;;;2.00;;
2452;SDS011;63678;47.994;7.854;2023-03-24T14:50:34;3.60;;;1.80;;
2452;SDS011;63678;47.994;7.854;2023-03-24T14:53:11;3.35;;;1.63;;
2452;SDS011;63678;47.994;7.854;2023-03-24T14:55:50;4.18;;;2.60;;
2452;SDS011;63678;47.994;7.854;2023-03-24T14:58:32;3.92;;;2.00;;
2452;SDS011;63678;47.994;7.854;2023-03-24T15:01:09;4.53;;;2.00;;
2452;SDS011;63678;47.994;7.854;2023-03-24T15:03:53;3.20;;;1.70;;
2452;SDS011;63678;47.994;7.854;2023-03-24T15:06:32;4.32;;;1.90;;
2452;SDS011;63678;47.994;7.854;2023-03-24T15:09:18;3.90;;;1.90;;
2452;SDS011;63678;47.994;7.854;2023-03-24T15:11:58;3.70;;;2.00;;
2452;SDS011;63678;47.994;7.854;2023-03-24T15:14:34;4.22;;;2.10;;
2452;SDS011;63678;47.994;7.854;2023-03-24T15:17:15;3.50;;;1.90;;
2452;SDS011;63678;47.994;7.854;2023-03-24T15:19:53;3.83;;;1.80;;
2452;SDS011;63678;47.994;7.854;2023-03-24T15:22:26;3.67;;;1.88;;
2452;SDS011;63678;47.994;7.854;2023-03-24T15:24:59;3.42;;;1.83;;
2452;SDS011;63678;47.994;7.854;2023-03-24T15:27:33;6.32;;;3.13;;
2452;SDS011;63678;47.994;7.854;2023-03-24T15:30:13;3.85;;;1.90;;
2452;SDS011;63678;47.994;7.854;2023-03-24T15:32:46;4.13;;;1.75;;
2452;SDS011;63678;47.994;7.854;2023-03-24T15:35:20;3.45;;;1.70;;
2452;SDS011;63678;47.994;7.854;2023-03-24T15:37:55;3.75;;;2.00;;
2452;SDS011;63678;47.994;7.854;2023-03-24T15:43:03;4.13;;;2.08;;
2452;SDS011;63678;47.994;7.854;2023-03-24T15:45:48;4.03;;;1.90;;
2452;SDS011;63678;47.994;7.854;2023-03-24T15:48:42;4.18;;;2.13;;
2452;SDS011;63678;47.994;7.854;2023-03-24T15:51:17;3.58;;;1.92;;
2452;SDS011;63678;47.994;7.854;2023-03-24T15:53:54;4.30;;;2.20;;
2452;SDS011;63678;47.994;7.854;2023-03-24T15:56:30;4.13;;;1.80;;
2452;SDS011;63678;47.994;7.854;2023-03-24T15:59:11;4.78;;;2.10;;
2452;SDS011;63678;47.994;7.854;2023-03-24T16:01:46;4.00;;;1.98;;
2452;SDS011;63678;47.994;7.854;2023-03-24T16:04:21;6.60;;;2.47;;
2452;SDS011;63678;47.994;7.854;2023-03-24T16:06:55;4.00;;;2.30;;
2452;SDS011;63678;47.994;7.854;2023-03-24T16:09:33;3.85;;;2.13;;
2452;SDS011;63678;47.994;7.854;2023-03-24T16:12:11;3.70;;;2.30;;
2452;SDS011;63678;47.994;7.854;2023-03-24T16:14:43;4.13;;;2.10;;
2452;SDS011;63678;47.994;7.854;2023-03-24T16:17:16;3.42;;;1.83;;
2452;SDS011;63678;47.994;7.854;2023-03-24T16:19:49;3.95;;;2.03;;
2452;SDS011;63678;47.994;7.854;2023-03-24T16:22:24;4.25;;;2.20;;
2452;SDS011;63678;47.994;7.854;2023-03-24T16:24:56;4.55;;;2.13;;
2452;SDS011;63678;47.994;7.854;2023-03-24T16:27:29;4.20;;;2.05;;
2452;SDS011;63678;47.994;7.854;2023-03-24T16:30:05;5.68;;;2.30;;
2452;SDS011;63678;47.994;7.854;2023-03-24T16:32:50;4.97;;;2.22;;
2452;SDS011;63678;47.994;7.854;2023-03-24T16:35:23;3.65;;;1.90;;
2452;SDS011;63678;47.994;7.854;2023-03-24T16:37:56;4.20;;;2.38;;
2452;SDS011;63678;47.994;7.854;2023-03-24T16:40:39;4.80;;;2.38;;
2452;SDS011;63678;47.994;7.854;2023-03-24T16:43:16;5.72;;;2.08;;
2452;SDS011;63678;47.994;7.854;2023-03-24T16:45:50;4.50;;;2.55;;
2452;SDS011;63678;47.994;7.854;2023-03-24T16:48:23;4.35;;;2.45;;
2452;SDS011;63678;47.994;7.854;2023-03-24T16:50:57;3.97;;;2.20;;
2452;SDS011;63678;47.994;7.854;2023-03-24T16:53:29;4.65;;;2.30;;
2452;SDS011;63678;47.994;7.854;2023-03-24T16:56:02;5.15;;;2.20;;
2452;SDS011;63678;47.994;7.854;2023-03-24T16:58:35;3.83;;;2.15;;
2452;SDS011;63678;47.994;7.854;2023-03-24T17:01:15;4.63;;;2.47;;
2452;SDS011;63678;47.994;7.854;2023-03-24T17:04:12;5.38;;;2.00;;
2452;SDS011;63678;47.994;7.854;2023-03-24T17:06:49;4.45;;;2.10;;
2452;SDS011;63678;47.994;7.854;2023-03-24T17:09:25;4.70;;;2.00;;
2452;SDS011;63678;47.994;7.854;2023-03-24T17:11:59;4.93;;;2.03;;
2452;SDS011;63678;47.994;7.854;2023-03-24T17:14:33;5.57;;;2.15;;
2452;SDS011;63678;47.994;7.854;2023-03-24T17:17:08;4.35;;;2.50;;
2452;SDS011;63678;47.994;7.854;2023-03-24T17:19:42;4.30;;;2.42;;
2452;SDS011;63678;47.994;7.854;2023-03-24T17:22:16;4.97;;;2.30;;
2452;SDS011;63678;47.994;7.854;2023-03-24T17:24:49;4.57;;;2.45;;
2452;SDS011;63678;47.994;7.854;2023-03-24T17:27:28;4.40;;;2.30;;
2452;SDS011;63678;47.994;7.854;2023-03-24T17:30:02;4.28;;;2.38;;
2452;SDS011;63678;47.994;7.854;2023-03-24T17:32:35;4.65;;;2.10;;
2452;SDS011;63678;47.994;7.854;2023-03-24T17:35:09;3.60;;;2.17;;
2452;SDS011;63678;47.994;7.854;2023-03-24T17:37:44;3.72;;;2.00;;
2452;SDS011;63678;47.994;7.854;2023-03-24T17:40:18;4.53;;;2.15;;
2452;SDS011;63678;47.994;7.854;2023-03-24T17:42:51;6.05;;;2.00;;
2452;SDS011;63678;47.994;7.854;2023-03-24T17:45:24;6.05;;;2.22;;
2452;SDS011;63678;47.994;7.854;2023-03-24T17:47:56;3.90;;;2.35;;
2452;SDS011;63678;47.994;7.854;2023-03-24T17:50:29;4.68;;;2.20;;
2452;SDS011;63678;47.994;7.854;2023-03-24T17:53:01;4.72;;;2.20;;
2452;SDS011;63678;47.994;7.854;2023-03-24T17:55:34;4.18;;;2.50;;
2452;SDS011;63678;47.994;7.854;2023-03-24T17:58:07;4.53;;;2.45;;
2452;SDS011;63678;47.994;7.854;2023-03-24T18:00:39;4.13;;;2.20;;
2452;SDS011;63678;47.994;7.854;2023-03-24T18:03:12;5.57;;;2.20;;
2452;SDS011;63678;47.994;7.854;2023-03-24T18:05:46;6.65;;;2.17;;
2452;SDS011;63678;47.994;7.854;2023-03-24T18:08:19;4.10;;;2.15;;
2452;SDS011;63678;47.994;7.854;2023-03-24T18:10:51;4.82;;;2.60;;
2452;SDS011;63678;47.994;7.854;2023-03-24T18:13:25;4.43;;;2.20;;